Terminal Aerodrome Forecast
Issued by NWS

Home | Current Version | Previous Version | Text Only | Print | Product List | Glossary On
Versions: 1 2 3 4 5 6 7 8 9 10 11 12 13 14 15 16 17 18 19 20 21 22 23 24 25
000
FTUS46 KOTX 250525
TAFSFF
TAF
KSFF 250525Z 2506/2606 35010KT P6SM VCSH SCT080 BKN200
     FM250800 VRB03KT P6SM -SHRA BKN080 OVC150
     FM251400 22005KT P6SM VCSH SCT070 BKN120
     FM252000 23006G13KT P6SM VCTS SCT070CB BKN100
     FM260200 VRB03KT P6SM VCSH BKN070=

USA.gov is the U.S. government's official web portal to all federal, state and local government web resources and services.